sensor_id;sensor_type;location;lat;lon;timestamp;P1;durP1;ratioP1;P2;durP2;ratioP2
21645;SDS011;10984;45.712;4.800;2023-11-21T00:02:09;5.82;;;1.80;;
21645;SDS011;10984;45.712;4.800;2023-11-21T00:04:35;4.00;;;1.48;;
21645;SDS011;10984;45.712;4.800;2023-11-21T00:07:01;4.57;;;1.20;;
21645;SDS011;10984;45.712;4.800;2023-11-21T00:09:26;5.07;;;1.00;;
21645;SDS011;10984;45.712;4.800;2023-11-21T00:11:52;4.32;;;1.13;;
21645;SDS011;10984;45.712;4.800;2023-11-21T00:14:18;3.05;;;1.20;;
21645;SDS011;10984;45.712;4.800;2023-11-21T00:16:43;3.28;;;1.30;;
21645;SDS011;10984;45.712;4.800;2023-11-21T00:19:09;4.97;;;1.40;;
21645;SDS011;10984;45.712;4.800;2023-11-21T00:21:34;3.28;;;1.23;;
21645;SDS011;10984;45.712;4.800;2023-11-21T00:24:00;5.75;;;1.90;;
21645;SDS011;10984;45.712;4.800;2023-11-21T00:26:26;6.30;;;2.47;;
21645;SDS011;10984;45.712;4.800;2023-11-21T00:28:51;4.45;;;1.52;;
21645;SDS011;10984;45.712;4.800;2023-11-21T00:31:17;5.65;;;2.08;;
21645;SDS011;10984;45.712;4.800;2023-11-21T00:33:42;8.20;;;2.10;;
21645;SDS011;10984;45.712;4.800;2023-11-21T00:36:08;10.15;;;3.97;;
21645;SDS011;10984;45.712;4.800;2023-11-21T00:38:34;10.68;;;5.13;;
21645;SDS011;10984;45.712;4.800;2023-11-21T00:41:01;7.30;;;3.33;;
21645;SDS011;10984;45.712;4.800;2023-11-21T00:43:27;8.05;;;3.03;;
21645;SDS011;10984;45.712;4.800;2023-11-21T00:45:53;8.63;;;3.55;;
21645;SDS011;10984;45.712;4.800;2023-11-21T00:48:19;6.35;;;3.00;;
21645;SDS011;10984;45.712;4.800;2023-11-21T00:50:44;6.70;;;2.80;;
21645;SDS011;10984;45.712;4.800;2023-11-21T00:53:10;4.60;;;2.13;;
21645;SDS011;10984;45.712;4.800;2023-11-21T00:55:36;7.03;;;2.88;;
21645;SDS011;10984;45.712;4.800;2023-11-21T00:58:05;6.50;;;2.55;;
21645;SDS011;10984;45.712;4.800;2023-11-21T01:00:32;5.32;;;2.20;;
21645;SDS011;10984;45.712;4.800;2023-11-21T01:02:58;4.43;;;2.28;;
21645;SDS011;10984;45.712;4.800;2023-11-21T01:05:24;6.93;;;2.80;;
21645;SDS011;10984;45.712;4.800;2023-11-21T01:07:49;5.68;;;2.30;;
21645;SDS011;10984;45.712;4.800;2023-11-21T01:10:15;6.35;;;2.78;;
21645;SDS011;10984;45.712;4.800;2023-11-21T01:12:42;6.47;;;2.70;;
21645;SDS011;10984;45.712;4.800;2023-11-21T01:15:08;5.57;;;2.67;;
21645;SDS011;10984;45.712;4.800;2023-11-21T01:17:34;9.38;;;3.03;;
21645;SDS011;10984;45.712;4.800;2023-11-21T01:20:00;7.47;;;2.95;;
21645;SDS011;10984;45.712;4.800;2023-11-21T01:22:27;5.90;;;2.85;;
21645;SDS011;10984;45.712;4.800;2023-11-21T01:24:53;6.30;;;2.63;;
21645;SDS011;10984;45.712;4.800;2023-11-21T01:27:19;4.93;;;2.55;;
21645;SDS011;10984;45.712;4.800;2023-11-21T01:29:45;7.82;;;2.40;;
21645;SDS011;10984;45.712;4.800;2023-11-21T01:32:11;7.22;;;2.50;;
21645;SDS011;10984;45.712;4.800;2023-11-21T01:34:37;7.45;;;2.47;;
21645;SDS011;10984;45.712;4.800;2023-11-21T01:37:03;5.75;;;2.55;;
21645;SDS011;10984;45.712;4.800;2023-11-21T01:39:30;8.90;;;3.13;;
21645;SDS011;10984;45.712;4.800;2023-11-21T01:41:56;14.43;;;4.00;;
21645;SDS011;10984;45.712;4.800;2023-11-21T01:44:23;8.10;;;3.28;;
21645;SDS011;10984;45.712;4.800;2023-11-21T01:46:49;5.80;;;2.85;;
21645;SDS011;10984;45.712;4.800;2023-11-21T01:49:16;8.48;;;3.20;;
21645;SDS011;10984;45.712;4.800;2023-11-21T01:51:43;6.55;;;3.28;;
21645;SDS011;10984;45.712;4.800;2023-11-21T01:54:12;9.68;;;3.80;;
21645;SDS011;10984;45.712;4.800;2023-11-21T01:56:38;11.23;;;4.28;;
21645;SDS011;10984;45.712;4.800;2023-11-21T01:59:04;9.63;;;4.30;;
21645;SDS011;10984;45.712;4.800;2023-11-21T02:01:32;7.93;;;3.60;;
21645;SDS011;10984;45.712;4.800;2023-11-21T02:03:58;7.43;;;3.67;;
21645;SDS011;10984;45.712;4.800;2023-11-21T02:06:24;9.20;;;3.83;;
21645;SDS011;10984;45.712;4.800;2023-11-21T02:08:50;10.13;;;3.92;;
21645;SDS011;10984;45.712;4.800;2023-11-21T02:11:16;6.43;;;3.55;;
21645;SDS011;10984;45.712;4.800;2023-11-21T02:13:44;6.30;;;3.35;;
21645;SDS011;10984;45.712;4.800;2023-11-21T02:16:11;9.88;;;3.95;;
21645;SDS011;10984;45.712;4.800;2023-11-21T02:18:39;12.15;;;4.05;;
21645;SDS011;10984;45.712;4.800;2023-11-21T02:21:07;11.70;;;4.30;;
21645;SDS011;10984;45.712;4.800;2023-11-21T02:23:35;10.23;;;4.63;;
21645;SDS011;10984;45.712;4.800;2023-11-21T02:26:00;8.32;;;3.60;;
21645;SDS011;10984;45.712;4.800;2023-11-21T02:28:29;8.40;;;3.80;;
21645;SDS011;10984;45.712;4.800;2023-11-21T02:30:55;11.30;;;4.43;;
21645;SDS011;10984;45.712;4.800;2023-11-21T02:33:22;9.10;;;4.07;;
21645;SDS011;10984;45.712;4.800;2023-11-21T02:35:48;9.38;;;3.72;;
21645;SDS011;10984;45.712;4.800;2023-11-21T02:38:14;8.85;;;4.18;;
21645;SDS011;10984;45.712;4.800;2023-11-21T02:40:40;8.57;;;3.97;;
21645;SDS011;10984;45.712;4.800;2023-11-21T02:43:07;7.50;;;4.13;;
21645;SDS011;10984;45.712;4.800;2023-11-21T02:45:32;9.02;;;4.45;;
21645;SDS011;10984;45.712;4.800;2023-11-21T02:47:58;12.90;;;6.53;;
21645;SDS011;10984;45.712;4.800;2023-11-21T02:50:24;10.93;;;4.28;;
21645;SDS011;10984;45.712;4.800;2023-11-21T02:52:49;10.43;;;4.15;;
21645;SDS011;10984;45.712;4.800;2023-11-21T02:55:16;11.50;;;4.65;;
21645;SDS011;10984;45.712;4.800;2023-11-21T02:57:41;12.30;;;5.22;;
21645;SDS011;10984;45.712;4.800;2023-11-21T03:00:07;10.35;;;5.05;;
21645;SDS011;10984;45.712;4.800;2023-11-21T03:02:35;11.55;;;4.50;;
21645;SDS011;10984;45.712;4.800;2023-11-21T03:05:19;9.77;;;4.97;;
21645;SDS011;10984;45.712;4.800;2023-11-21T03:07:45;11.05;;;4.90;;
21645;SDS011;10984;45.712;4.800;2023-11-21T03:10:11;10.68;;;4.68;;
21645;SDS011;10984;45.712;4.800;2023-11-21T03:12:37;11.45;;;5.03;;
21645;SDS011;10984;45.712;4.800;2023-11-21T03:15:03;8.10;;;4.80;;
21645;SDS011;10984;45.712;4.800;2023-11-21T03:17:31;10.93;;;4.78;;
21645;SDS011;10984;45.712;4.800;2023-11-21T03:19:56;8.27;;;4.18;;
21645;SDS011;10984;45.712;4.800;2023-11-21T03:22:22;11.25;;;5.25;;
21645;SDS011;10984;45.712;4.800;2023-11-21T03:24:48;9.00;;;4.25;;
21645;SDS011;10984;45.712;4.800;2023-11-21T03:27:14;11.80;;;4.68;;
21645;SDS011;10984;45.712;4.800;2023-11-21T03:29:39;7.93;;;4.70;;
21645;SDS011;10984;45.712;4.800;2023-11-21T03:32:05;8.30;;;4.05;;
21645;SDS011;10984;45.712;4.800;2023-11-21T03:34:32;9.50;;;4.65;;
21645;SDS011;10984;45.712;4.800;2023-11-21T03:36:57;7.90;;;4.53;;
21645;SDS011;10984;45.712;4.800;2023-11-21T03:39:23;9.77;;;4.93;;
21645;SDS011;10984;45.712;4.800;2023-11-21T03:41:50;11.45;;;4.85;;
21645;SDS011;10984;45.712;4.800;2023-11-21T03:44:17;11.98;;;4.05;;
21645;SDS011;10984;45.712;4.800;2023-11-21T03:46:43;10.77;;;4.75;;
21645;SDS011;10984;45.712;4.800;2023-11-21T03:49:09;8.80;;;3.83;;
21645;SDS011;10984;45.712;4.800;2023-11-21T03:51:36;8.38;;;4.00;;
21645;SDS011;10984;45.712;4.800;2023-11-21T03:54:02;11.10;;;3.80;;
21645;SDS011;10984;45.712;4.800;2023-11-21T03:56:28;8.38;;;3.30;;
21645;SDS011;10984;45.712;4.800;2023-11-21T03:58:53;7.32;;;2.95;;
21645;SDS011;10984;45.712;4.800;2023-11-21T04:04:04;7.43;;;3.38;;
21645;SDS011;10984;45.712;4.800;2023-11-21T04:06:29;7.32;;;2.97;;
21645;SDS011;10984;45.712;4.800;2023-11-21T04:08:57;8.23;;;2.92;;
21645;SDS011;10984;45.712;4.800;2023-11-21T04:11:23;7.35;;;3.45;;
21645;SDS011;10984;45.712;4.800;2023-11-21T04:13:49;14.73;;;6.15;;
21645;SDS011;10984;45.712;4.800;2023-11-21T04:16:15;11.68;;;5.82;;
21645;SDS011;10984;45.712;4.800;2023-11-21T04:18:41;11.07;;;4.75;;
21645;SDS011;10984;45.712;4.800;2023-11-21T04:21:07;7.95;;;3.63;;
21645;SDS011;10984;45.712;4.800;2023-11-21T04:23:33;8.43;;;4.80;;
21645;SDS011;10984;45.712;4.800;2023-11-21T04:26:00;10.52;;;5.00;;
21645;SDS011;10984;45.712;4.800;2023-11-21T04:28:27;8.98;;;4.95;;
21645;SDS011;10984;45.712;4.800;2023-11-21T04:30:52;10.57;;;3.13;;
21645;SDS011;10984;45.712;4.800;2023-11-21T04:33:18;9.10;;;4.50;;
21645;SDS011;10984;45.712;4.800;2023-11-21T04:35:44;6.60;;;3.25;;
21645;SDS011;10984;45.712;4.800;2023-11-21T04:38:10;6.88;;;3.20;;
21645;SDS011;10984;45.712;4.800;2023-11-21T04:40:35;8.05;;;3.30;;
21645;SDS011;10984;45.712;4.800;2023-11-21T04:43:01;10.55;;;3.33;;
21645;SDS011;10984;45.712;4.800;2023-11-21T04:45:27;5.32;;;2.97;;
21645;SDS011;10984;45.712;4.800;2023-11-21T04:47:52;5.82;;;3.35;;
21645;SDS011;10984;45.712;4.800;2023-11-21T04:50:18;7.95;;;4.03;;
21645;SDS011;10984;45.712;4.800;2023-11-21T04:52:44;7.53;;;4.00;;
21645;SDS011;10984;45.712;4.800;2023-11-21T04:55:09;5.45;;;3.70;;
21645;SDS011;10984;45.712;4.800;2023-11-21T04:57:36;11.85;;;3.10;;
21645;SDS011;10984;45.712;4.800;2023-11-21T05:00:02;7.15;;;2.70;;
21645;SDS011;10984;45.712;4.800;2023-11-21T05:02:32;10.63;;;3.20;;
21645;SDS011;10984;45.712;4.800;2023-11-21T05:04:59;7.57;;;2.80;;
21645;SDS011;10984;45.712;4.800;2023-11-21T05:07:25;6.25;;;2.78;;
21645;SDS011;10984;45.712;4.800;2023-11-21T05:09:54;4.20;;;2.00;;
21645;SDS011;10984;45.712;4.800;2023-11-21T05:12:21;5.10;;;2.20;;
21645;SDS011;10984;45.712;4.800;2023-11-21T05:14:48;6.82;;;2.33;;
21645;SDS011;10984;45.712;4.800;2023-11-21T05:17:14;5.57;;;2.35;;
21645;SDS011;10984;45.712;4.800;2023-11-21T05:19:40;5.22;;;2.63;;
21645;SDS011;10984;45.712;4.800;2023-11-21T05:22:06;5.47;;;2.28;;
21645;SDS011;10984;45.712;4.800;2023-11-21T05:24:33;5.38;;;2.22;;
21645;SDS011;10984;45.712;4.800;2023-11-21T05:26:58;6.43;;;2.20;;
21645;SDS011;10984;45.712;4.800;2023-11-21T05:29:24;7.88;;;2.35;;
21645;SDS011;10984;45.712;4.800;2023-11-21T05:31:50;4.72;;;2.33;;
21645;SDS011;10984;45.712;4.800;2023-11-21T05:34:16;7.32;;;2.97;;
21645;SDS011;10984;45.712;4.800;2023-11-21T05:39:26;5.43;;;2.80;;
21645;SDS011;10984;45.712;4.800;2023-11-21T05:41:52;6.20;;;2.25;;
21645;SDS011;10984;45.712;4.800;2023-11-21T05:44:18;7.38;;;2.35;;
21645;SDS011;10984;45.712;4.800;2023-11-21T05:46:44;8.05;;;2.65;;
21645;SDS011;10984;45.712;4.800;2023-11-21T05:49:10;6.40;;;2.55;;
21645;SDS011;10984;45.712;4.800;2023-11-21T05:51:36;6.32;;;3.05;;
21645;SDS011;10984;45.712;4.800;2023-11-21T05:54:03;7.85;;;2.90;;
21645;SDS011;10984;45.712;4.800;2023-11-21T05:56:29;4.60;;;2.80;;
21645;SDS011;10984;45.712;4.800;2023-11-21T05:58:54;5.97;;;3.58;;
21645;SDS011;10984;45.712;4.800;2023-11-21T06:01:20;6.95;;;3.13;;
21645;SDS011;10984;45.712;4.800;2023-11-21T06:03:46;5.82;;;3.20;;
21645;SDS011;10984;45.712;4.800;2023-11-21T06:06:11;5.85;;;3.42;;
21645;SDS011;10984;45.712;4.800;2023-11-21T06:08:37;11.35;;;4.63;;
21645;SDS011;10984;45.712;4.800;2023-11-21T06:11:03;8.45;;;3.40;;
21645;SDS011;10984;45.712;4.800;2023-11-21T06:13:28;6.78;;;3.60;;
21645;SDS011;10984;45.712;4.800;2023-11-21T06:15:54;6.63;;;3.65;;
21645;SDS011;10984;45.712;4.800;2023-11-21T06:18:20;7.50;;;3.05;;
21645;SDS011;10984;45.712;4.800;2023-11-21T06:20:46;7.20;;;3.20;;
21645;SDS011;10984;45.712;4.800;2023-11-21T06:23:11;7.90;;;3.50;;
21645;SDS011;10984;45.712;4.800;2023-11-21T06:25:37;8.38;;;3.05;;
21645;SDS011;10984;45.712;4.800;2023-11-21T06:28:03;6.28;;;3.00;;
21645;SDS011;10984;45.712;4.800;2023-11-21T06:30:29;5.72;;;3.30;;
21645;SDS011;10984;45.712;4.800;2023-11-21T06:32:54;8.43;;;3.03;;
21645;SDS011;10984;45.712;4.800;2023-11-21T06:35:21;6.95;;;2.85;;
21645;SDS011;10984;45.712;4.800;2023-11-21T06:37:47;11.73;;;3.90;;
21645;SDS011;10984;45.712;4.800;2023-11-21T06:40:13;7.60;;;2.88;;
21645;SDS011;10984;45.712;4.800;2023-11-21T06:42:57;5.13;;;3.08;;
21645;SDS011;10984;45.712;4.800;2023-11-21T06:45:23;6.53;;;3.38;;
21645;SDS011;10984;45.712;4.800;2023-11-21T06:47:49;7.22;;;3.50;;
21645;SDS011;10984;45.712;4.800;2023-11-21T06:50:15;7.65;;;3.70;;
21645;SDS011;10984;45.712;4.800;2023-11-21T06:52:40;7.47;;;3.30;;
21645;SDS011;10984;45.712;4.800;2023-11-21T06:55:06;9.52;;;4.22;;
21645;SDS011;10984;45.712;4.800;2023-11-21T06:57:50;8.98;;;3.72;;
21645;SDS011;10984;45.712;4.800;2023-11-21T07:00:17;11.27;;;4.55;;
21645;SDS011;10984;45.712;4.800;2023-11-21T07:02:43;7.07;;;4.35;;
21645;SDS011;10984;45.712;4.800;2023-11-21T07:05:09;10.57;;;5.45;;
21645;SDS011;10984;45.712;4.800;2023-11-21T07:07:36;13.40;;;5.82;;
21645;SDS011;10984;45.712;4.800;2023-11-21T07:10:02;14.60;;;6.60;;
21645;SDS011;10984;45.712;4.800;2023-11-21T07:12:29;15.13;;;6.65;;
21645;SDS011;10984;45.712;4.800;2023-11-21T07:14:56;10.73;;;5.93;;
21645;SDS011;10984;45.712;4.800;2023-11-21T07:17:22;13.10;;;5.82;;
21645;SDS011;10984;45.712;4.800;2023-11-21T07:19:48;9.55;;;4.88;;
21645;SDS011;10984;45.712;4.800;2023-11-21T07:22:15;7.50;;;4.75;;
21645;SDS011;10984;45.712;4.800;2023-11-21T07:24:47;10.52;;;5.43;;
21645;SDS011;10984;45.712;4.800;2023-11-21T07:27:15;8.32;;;4.55;;
21645;SDS011;10984;45.712;4.800;2023-11-21T07:29:40;13.55;;;4.70;;
21645;SDS011;10984;45.712;4.800;2023-11-21T07:32:06;14.10;;;5.18;;
21645;SDS011;10984;45.712;4.800;2023-11-21T07:34:34;9.80;;;4.90;;
21645;SDS011;10984;45.712;4.800;2023-11-21T07:37:00;12.30;;;5.18;;
21645;SDS011;10984;45.712;4.800;2023-11-21T07:39:25;8.70;;;4.35;;
21645;SDS011;10984;45.712;4.800;2023-11-21T07:41:51;10.13;;;5.07;;
21645;SDS011;10984;45.712;4.800;2023-11-21T07:44:17;8.57;;;4.88;;
21645;SDS011;10984;45.712;4.800;2023-11-21T07:46:43;12.07;;;5.25;;
21645;SDS011;10984;45.712;4.800;2023-11-21T07:49:09;9.27;;;5.15;;
21645;SDS011;10984;45.712;4.800;2023-11-21T07:51:35;10.95;;;4.78;;
21645;SDS011;10984;45.712;4.800;2023-11-21T07:54:00;11.70;;;5.50;;
21645;SDS011;10984;45.712;4.800;2023-11-21T07:56:26;10.25;;;4.47;;
21645;SDS011;10984;45.712;4.800;2023-11-21T07:58:52;12.25;;;5.55;;
21645;SDS011;10984;45.712;4.800;2023-11-21T08:01:18;8.88;;;5.18;;
21645;SDS011;10984;45.712;4.800;2023-11-21T08:03:44;10.48;;;4.78;;
21645;SDS011;10984;45.712;4.800;2023-11-21T08:06:09;10.15;;;5.97;;
21645;SDS011;10984;45.712;4.800;2023-11-21T08:08:35;9.93;;;5.22;;
21645;SDS011;10984;45.712;4.800;2023-11-21T08:11:01;9.80;;;5.00;;
21645;SDS011;10984;45.712;4.800;2023-11-21T08:13:28;8.10;;;4.30;;
21645;SDS011;10984;45.712;4.800;2023-11-21T08:16:13;11.13;;;4.97;;
21645;SDS011;10984;45.712;4.800;2023-11-21T08:18:39;9.38;;;4.90;;
21645;SDS011;10984;45.712;4.800;2023-11-21T08:21:06;7.75;;;3.85;;
21645;SDS011;10984;45.712;4.800;2023-11-21T08:23:34;12.10;;;5.38;;
21645;SDS011;10984;45.712;4.800;2023-11-21T08:25:59;14.43;;;5.97;;
21645;SDS011;10984;45.712;4.800;2023-11-21T08:28:28;10.95;;;5.03;;
21645;SDS011;10984;45.712;4.800;2023-11-21T08:30:53;10.85;;;5.00;;
21645;SDS011;10984;45.712;4.800;2023-11-21T08:33:19;11.00;;;4.72;;
21645;SDS011;10984;45.712;4.800;2023-11-21T08:35:45;8.95;;;4.78;;
21645;SDS011;10984;45.712;4.800;2023-11-21T08:38:11;7.90;;;4.30;;
21645;SDS011;10984;45.712;4.800;2023-11-21T08:40:37;13.43;;;4.68;;
21645;SDS011;10984;45.712;4.800;2023-11-21T08:43:03;16.20;;;5.20;;
21645;SDS011;10984;45.712;4.800;2023-11-21T08:45:29;7.95;;;4.68;;
21645;SDS011;10984;45.712;4.800;2023-11-21T08:47:55;10.80;;;5.03;;
21645;SDS011;10984;45.712;4.800;2023-11-21T08:50:21;9.30;;;4.20;;
21645;SDS011;10984;45.712;4.800;2023-11-21T08:52:46;7.13;;;3.38;;
21645;SDS011;10984;45.712;4.800;2023-11-21T08:55:13;7.80;;;3.83;;
21645;SDS011;10984;45.712;4.800;2023-11-21T08:57:39;6.45;;;3.13;;
21645;SDS011;10984;45.712;4.800;2023-11-21T09:00:07;7.55;;;2.83;;
21645;SDS011;10984;45.712;4.800;2023-11-21T09:02:36;5.75;;;2.47;;
21645;SDS011;10984;45.712;4.800;2023-11-21T09:05:03;5.90;;;2.47;;
21645;SDS011;10984;45.712;4.800;2023-11-21T09:07:30;3.35;;;1.50;;
21645;SDS011;10984;45.712;4.800;2023-11-21T09:09:55;3.55;;;1.48;;
21645;SDS011;10984;45.712;4.800;2023-11-21T09:12:21;3.30;;;1.27;;
21645;SDS011;10984;45.712;4.800;2023-11-21T09:14:47;2.53;;;1.15;;
21645;SDS011;10984;45.712;4.800;2023-11-21T09:17:13;2.90;;;1.20;;
21645;SDS011;10984;45.712;4.800;2023-11-21T09:19:40;2.53;;;1.00;;
21645;SDS011;10984;45.712;4.800;2023-11-21T09:22:06;2.90;;;0.98;;
21645;SDS011;10984;45.712;4.800;2023-11-21T09:24:32;3.83;;;0.70;;
21645;SDS011;10984;45.712;4.800;2023-11-21T09:26:59;1.95;;;1.00;;
21645;SDS011;10984;45.712;4.800;2023-11-21T09:29:27;5.15;;;1.20;;
21645;SDS011;10984;45.712;4.800;2023-11-21T09:31:54;2.03;;;0.80;;
21645;SDS011;10984;45.712;4.800;2023-11-21T09:34:20;3.63;;;1.38;;
21645;SDS011;10984;45.712;4.800;2023-11-21T09:36:46;2.72;;;1.00;;
21645;SDS011;10984;45.712;4.800;2023-11-21T09:39:13;2.10;;;0.75;;
21645;SDS011;10984;45.712;4.800;2023-11-21T09:41:59;4.18;;;1.48;;
21645;SDS011;10984;45.712;4.800;2023-11-21T09:47:35;3.75;;;1.48;;
21645;SDS011;10984;45.712;4.800;2023-11-21T09:50:04;8.40;;;4.05;;
21645;SDS011;10984;45.712;4.800;2023-11-21T09:52:33;4.85;;;2.50;;
21645;SDS011;10984;45.712;4.800;2023-11-21T09:55:14;3.05;;;1.45;;
21645;SDS011;10984;45.712;4.800;2023-11-21T09:57:43;8.38;;;3.80;;
21645;SDS011;10984;45.712;4.800;2023-11-21T10:00:10;5.45;;;2.15;;
21645;SDS011;10984;45.712;4.800;2023-11-21T10:02:37;9.02;;;3.10;;
21645;SDS011;10984;45.712;4.800;2023-11-21T10:05:05;6.93;;;3.15;;
21645;SDS011;10984;45.712;4.800;2023-11-21T10:07:32;4.88;;;2.42;;
21645;SDS011;10984;45.712;4.800;2023-11-21T10:10:00;6.40;;;2.90;;
21645;SDS011;10984;45.712;4.800;2023-11-21T10:12:26;10.15;;;4.80;;
21645;SDS011;10984;45.712;4.800;2023-11-21T10:14:54;9.38;;;3.70;;
21645;SDS011;10984;45.712;4.800;2023-11-21T10:17:25;10.68;;;4.88;;
21645;SDS011;10984;45.712;4.800;2023-11-21T10:19:55;4.88;;;2.42;;
21645;SDS011;10984;45.712;4.800;2023-11-21T10:22:22;3.58;;;1.95;;
21645;SDS011;10984;45.712;4.800;2023-11-21T10:24:49;5.30;;;2.00;;
21645;SDS011;10984;45.712;4.800;2023-11-21T10:27:14;2.80;;;1.38;;
21645;SDS011;10984;45.712;4.800;2023-11-21T10:29:40;3.47;;;1.70;;
21645;SDS011;10984;45.712;4.800;2023-11-21T10:32:06;6.25;;;2.95;;
21645;SDS011;10984;45.712;4.800;2023-11-21T10:34:32;7.45;;;3.72;;
21645;SDS011;10984;45.712;4.800;2023-11-21T10:36:59;8.55;;;3.63;;
21645;SDS011;10984;45.712;4.800;2023-11-21T10:39:36;5.00;;;2.40;;
21645;SDS011;10984;45.712;4.800;2023-11-21T10:42:03;3.90;;;1.77;;
21645;SDS011;10984;45.712;4.800;2023-11-21T10:44:29;4.30;;;1.70;;
21645;SDS011;10984;45.712;4.800;2023-11-21T10:46:55;4.30;;;1.38;;
21645;SDS011;10984;45.712;4.800;2023-11-21T10:49:22;2.72;;;1.17;;
21645;SDS011;10984;45.712;4.800;2023-11-21T10:51:50;4.38;;;1.40;;
21645;SDS011;10984;45.712;4.800;2023-11-21T10:54:18;2.00;;;1.02;;
21645;SDS011;10984;45.712;4.800;2023-11-21T10:56:45;2.17;;;1.10;;
21645;SDS011;10984;45.712;4.800;2023-11-21T10:59:13;2.40;;;1.27;;
21645;SDS011;10984;45.712;4.800;2023-11-21T11:01:41;2.65;;;1.40;;
21645;SDS011;10984;45.712;4.800;2023-11-21T11:04:09;3.38;;;1.58;;
21645;SDS011;10984;45.712;4.800;2023-11-21T11:06:45;3.13;;;1.48;;
21645;SDS011;10984;45.712;4.800;2023-11-21T11:09:15;2.55;;;0.98;;
21645;SDS011;10984;45.712;4.800;2023-11-21T11:11:42;5.30;;;1.15;;
21645;SDS011;10984;45.712;4.800;2023-11-21T11:14:12;3.65;;;1.40;;
21645;SDS011;10984;45.712;4.800;2023-11-21T11:16:39;1.83;;;0.70;;
21645;SDS011;10984;45.712;4.800;2023-11-21T11:19:06;3.72;;;1.00;;
21645;SDS011;10984;45.712;4.800;2023-11-21T11:36:22;2.35;;;0.70;;
21645;SDS011;10984;45.712;4.800;2023-11-21T11:38:56;1.80;;;0.40;;
21645;SDS011;10984;45.712;4.800;2023-11-21T11:44:45;2.28;;;1.00;;
21645;SDS011;10984;45.712;4.800;2023-11-21T11:47:16;2.08;;;0.57;;
21645;SDS011;10984;45.712;4.800;2023-11-21T11:52:53;0.93;;;0.45;;
21645;SDS011;10984;45.712;4.800;2023-11-21T11:58:05;4.38;;;1.10;;
21645;SDS011;10984;45.712;4.800;2023-11-21T12:02:59;2.10;;;1.08;;
21645;SDS011;10984;45.712;4.800;2023-11-21T12:05:28;1.98;;;0.70;;
21645;SDS011;10984;45.712;4.800;2023-11-21T12:07:59;1.95;;;0.70;;
21645;SDS011;10984;45.712;4.800;2023-11-21T12:10:29;2.35;;;0.80;;
21645;SDS011;10984;45.712;4.800;2023-11-21T12:12:57;2.25;;;1.10;;
21645;SDS011;10984;45.712;4.800;2023-11-21T12:15:25;3.03;;;0.73;;
21645;SDS011;10984;45.712;4.800;2023-11-21T12:17:51;2.67;;;0.95;;
21645;SDS011;10984;45.712;4.800;2023-11-21T12:23:04;1.80;;;0.90;;
21645;SDS011;10984;45.712;4.800;2023-11-21T12:25:31;2.75;;;0.88;;
21645;SDS011;10984;45.712;4.800;2023-11-21T12:27:58;2.10;;;0.77;;
21645;SDS011;10984;45.712;4.800;2023-11-21T12:30:28;2.00;;;0.73;;
21645;SDS011;10984;45.712;4.800;2023-11-21T12:32:56;3.15;;;0.77;;
21645;SDS011;10984;45.712;4.800;2023-11-21T12:38:09;3.70;;;0.77;;
21645;SDS011;10984;45.712;4.800;2023-11-21T12:40:35;1.40;;;0.60;;
21645;SDS011;10984;45.712;4.800;2023-11-21T12:43:00;2.63;;;0.70;;
21645;SDS011;10984;45.712;4.800;2023-11-21T12:45:29;1.50;;;0.55;;
21645;SDS011;10984;45.712;4.800;2023-11-21T12:50:42;1.52;;;0.70;;
21645;SDS011;10984;45.712;4.800;2023-11-21T12:53:08;1.48;;;0.75;;
21645;SDS011;10984;45.712;4.800;2023-11-21T12:55:55;1.55;;;0.75;;
21645;SDS011;10984;45.712;4.800;2023-11-21T12:58:23;1.67;;;0.77;;
21645;SDS011;10984;45.712;4.800;2023-11-21T13:00:50;2.00;;;0.80;;
21645;SDS011;10984;45.712;4.800;2023-11-21T13:03:19;2.40;;;1.00;;
21645;SDS011;10984;45.712;4.800;2023-11-21T13:05:50;2.72;;;0.60;;
21645;SDS011;10984;45.712;4.800;2023-11-21T13:08:16;4.13;;;1.13;;
21645;SDS011;10984;45.712;4.800;2023-11-21T13:10:46;1.85;;;0.70;;
21645;SDS011;10984;45.712;4.800;2023-11-21T13:13:15;1.88;;;0.43;;
21645;SDS011;10984;45.712;4.800;2023-11-21T13:15:59;1.42;;;0.40;;
21645;SDS011;10984;45.712;4.800;2023-11-21T13:18:26;2.80;;;0.50;;
21645;SDS011;10984;45.712;4.800;2023-11-21T13:23:39;2.70;;;0.68;;
21645;SDS011;10984;45.712;4.800;2023-11-21T13:26:06;2.38;;;0.40;;
21645;SDS011;10984;45.712;4.800;2023-11-21T13:28:33;2.15;;;0.60;;
21645;SDS011;10984;45.712;4.800;2023-11-21T13:31:00;2.50;;;0.60;;
21645;SDS011;10984;45.712;4.800;2023-11-21T13:33:45;1.38;;;0.50;;
21645;SDS011;10984;45.712;4.800;2023-11-21T13:36:15;0.73;;;0.40;;
21645;SDS011;10984;45.712;4.800;2023-11-21T13:38:47;1.98;;;0.90;;
21645;SDS011;10984;45.712;4.800;2023-11-21T13:41:14;1.13;;;0.50;;
21645;SDS011;10984;45.712;4.800;2023-11-21T13:43:40;2.10;;;0.50;;
21645;SDS011;10984;45.712;4.800;2023-11-21T13:46:09;1.10;;;0.60;;
21645;SDS011;10984;45.712;4.800;2023-11-21T13:48:53;1.85;;;0.50;;
21645;SDS011;10984;45.712;4.800;2023-11-21T13:51:21;3.25;;;0.85;;
21645;SDS011;10984;45.712;4.800;2023-11-21T13:53:55;0.90;;;0.50;;
21645;SDS011;10984;45.712;4.800;2023-11-21T13:56:21;1.65;;;0.57;;
21645;SDS011;10984;45.712;4.800;2023-11-21T13:59:05;2.97;;;0.57;;
21645;SDS011;10984;45.712;4.800;2023-11-21T14:01:41;1.35;;;0.60;;
21645;SDS011;10984;45.712;4.800;2023-11-21T14:04:26;2.63;;;1.13;;
21645;SDS011;10984;45.712;4.800;2023-11-21T14:07:10;2.60;;;0.60;;
21645;SDS011;10984;45.712;4.800;2023-11-21T14:09:47;2.13;;;0.68;;
21645;SDS011;10984;45.712;4.800;2023-11-21T14:12:14;2.95;;;0.60;;
21645;SDS011;10984;45.712;4.800;2023-11-21T14:14:40;1.50;;;0.85;;
21645;SDS011;10984;45.712;4.800;2023-11-21T14:17:06;2.58;;;0.90;;
21645;SDS011;10984;45.712;4.800;2023-11-21T14:19:32;2.10;;;0.70;;
21645;SDS011;10984;45.712;4.800;2023-11-21T14:21:58;2.00;;;0.70;;
21645;SDS011;10984;45.712;4.800;2023-11-21T14:24:24;1.90;;;0.70;;
21645;SDS011;10984;45.712;4.800;2023-11-21T14:26:50;1.52;;;0.57;;
21645;SDS011;10984;45.712;4.800;2023-11-21T14:29:16;1.52;;;0.40;;
21645;SDS011;10984;45.712;4.800;2023-11-21T14:31:45;1.70;;;0.43;;
21645;SDS011;10984;45.712;4.800;2023-11-21T14:34:11;2.97;;;0.40;;
21645;SDS011;10984;45.712;4.800;2023-11-21T14:36:38;1.83;;;0.50;;
21645;SDS011;10984;45.712;4.800;2023-11-21T14:39:05;0.82;;;0.40;;
21645;SDS011;10984;45.712;4.800;2023-11-21T14:41:50;1.90;;;0.80;;
21645;SDS011;10984;45.712;4.800;2023-11-21T14:44:15;0.98;;;0.50;;
21645;SDS011;10984;45.712;4.800;2023-11-21T14:46:42;1.27;;;0.52;;
21645;SDS011;10984;45.712;4.800;2023-11-21T14:49:26;3.92;;;0.68;;
21645;SDS011;10984;45.712;4.800;2023-11-21T14:51:56;1.75;;;0.47;;
21645;SDS011;10984;45.712;4.800;2023-11-21T14:54:40;4.43;;;1.25;;
21645;SDS011;10984;45.712;4.800;2023-11-21T14:57:06;6.70;;;3.38;;
21645;SDS011;10984;45.712;4.800;2023-11-21T14:59:52;1.55;;;0.68;;
21645;SDS011;10984;45.712;4.800;2023-11-21T15:02:22;2.90;;;1.08;;
21645;SDS011;10984;45.712;4.800;2023-11-21T15:05:08;2.58;;;0.70;;
21645;SDS011;10984;45.712;4.800;2023-11-21T15:07:40;2.45;;;1.10;;
21645;SDS011;10984;45.712;4.800;2023-11-21T15:10:06;1.88;;;0.50;;
21645;SDS011;10984;45.712;4.800;2023-11-21T15:12:36;1.17;;;0.50;;
21645;SDS011;10984;45.712;4.800;2023-11-21T15:15:04;3.72;;;1.05;;
21645;SDS011;10984;45.712;4.800;2023-11-21T15:17:33;5.18;;;0.70;;
21645;SDS011;10984;45.712;4.800;2023-11-21T15:19:58;2.05;;;0.70;;
21645;SDS011;10984;45.712;4.800;2023-11-21T15:22:25;1.40;;;0.70;;
21645;SDS011;10984;45.712;4.800;2023-11-21T15:24:52;1.48;;;0.60;;
21645;SDS011;10984;45.712;4.800;2023-11-21T15:27:19;3.53;;;0.90;;
21645;SDS011;10984;45.712;4.800;2023-11-21T15:29:45;1.52;;;0.60;;
21645;SDS011;10984;45.712;4.800;2023-11-21T15:32:11;1.83;;;0.70;;
21645;SDS011;10984;45.712;4.800;2023-11-21T15:34:37;2.17;;;0.70;;